sensor_id;sensor_type;location;lat;lon;timestamp;pressure;altitude;pressure_sealevel;temperature;humidity
28167;BME280;15455;53.376;-6.262;2023-04-21T00:02:20;101833.81;;;7.65;100.00
28167;BME280;15455;53.376;-6.262;2023-04-21T00:05:06;101833.81;;;7.65;100.00
28167;BME280;15455;53.376;-6.262;2023-04-21T00:07:56;101827.72;;;7.65;100.00
28167;BME280;15455;53.376;-6.262;2023-04-21T00:10:42;101826.81;;;7.63;100.00
28167;BME280;15455;53.376;-6.262;2023-04-21T00:13:27;101841.53;;;7.64;100.00
28167;BME280;15455;53.376;-6.262;2023-04-21T00:16:13;101842.41;;;7.63;100.00
28167;BME280;15455;53.376;-6.262;2023-04-21T00:18:59;101849.28;;;7.62;100.00
28167;BME280;15455;53.376;-6.262;2023-04-21T00:21:44;101846.59;;;7.59;100.00
28167;BME280;15455;53.376;-6.262;2023-04-21T00:24:30;101848.22;;;7.54;100.00
28167;BME280;15455;53.376;-6.262;2023-04-21T00:27:15;101847.28;;;7.52;100.00
28167;BME280;15455;53.376;-6.262;2023-04-21T00:30:01;101841.13;;;7.48;100.00
28167;BME280;15455;53.376;-6.262;2023-04-21T00:32:47;101833.22;;;7.44;100.00
28167;BME280;15455;53.376;-6.262;2023-04-21T00:35:32;101839.91;;;7.36;100.00
28167;BME280;15455;53.376;-6.262;2023-04-21T00:38:18;101843.16;;;7.28;100.00
28167;BME280;15455;53.376;-6.262;2023-04-21T00:41:03;101843.00;;;7.22;100.00
28167;BME280;15455;53.376;-6.262;2023-04-21T00:44:04;101817.03;;;7.22;100.00
28167;BME280;15455;53.376;-6.262;2023-04-21T00:46:50;101828.31;;;7.24;100.00
28167;BME280;15455;53.376;-6.262;2023-04-21T00:49:35;101831.00;;;7.27;100.00
28167;BME280;15455;53.376;-6.262;2023-04-21T00:52:21;101831.13;;;7.32;100.00
28167;BME280;15455;53.376;-6.262;2023-04-21T00:55:06;101838.22;;;7.38;100.00
28167;BME280;15455;53.376;-6.262;2023-04-21T00:57:52;101828.09;;;7.47;100.00
28167;BME280;15455;53.376;-6.262;2023-04-21T01:00:44;101826.38;;;7.47;100.00
28167;BME280;15455;53.376;-6.262;2023-04-21T01:03:29;101827.19;;;7.46;100.00
28167;BME280;15455;53.376;-6.262;2023-04-21T01:06:15;101823.72;;;7.46;100.00
28167;BME280;15455;53.376;-6.262;2023-04-21T01:09:01;101829.09;;;7.52;100.00
28167;BME280;15455;53.376;-6.262;2023-04-21T01:12:01;101826.53;;;7.54;100.00
28167;BME280;15455;53.376;-6.262;2023-04-21T01:14:47;101817.00;;;7.53;100.00
28167;BME280;15455;53.376;-6.262;2023-04-21T01:17:33;101809.16;;;7.51;100.00
28167;BME280;15455;53.376;-6.262;2023-04-21T01:20:23;101797.84;;;7.49;100.00
28167;BME280;15455;53.376;-6.262;2023-04-21T01:23:08;101794.28;;;7.45;100.00
28167;BME280;15455;53.376;-6.262;2023-04-21T01:25:54;101802.06;;;7.44;100.00
28167;BME280;15455;53.376;-6.262;2023-04-21T01:28:39;101798.47;;;7.40;100.00
28167;BME280;15455;53.376;-6.262;2023-04-21T01:31:25;101791.47;;;7.38;100.00
28167;BME280;15455;53.376;-6.262;2023-04-21T01:34:11;101775.72;;;7.32;100.00
28167;BME280;15455;53.376;-6.262;2023-04-21T01:36:56;101760.97;;;7.30;100.00
28167;BME280;15455;53.376;-6.262;2023-04-21T01:39:43;101762.66;;;7.28;100.00
28167;BME280;15455;53.376;-6.262;2023-04-21T01:42:29;101754.78;;;7.25;100.00
28167;BME280;15455;53.376;-6.262;2023-04-21T01:45:15;101736.63;;;7.25;100.00
28167;BME280;15455;53.376;-6.262;2023-04-21T01:48:00;101738.97;;;7.18;100.00
28167;BME280;15455;53.376;-6.262;2023-04-21T01:50:46;101743.22;;;7.14;100.00
28167;BME280;15455;53.376;-6.262;2023-04-21T01:53:31;101757.75;;;7.07;100.00
28167;BME280;15455;53.376;-6.262;2023-04-21T01:56:19;101741.34;;;7.08;100.00
28167;BME280;15455;53.376;-6.262;2023-04-21T01:59:04;101761.25;;;7.08;100.00
28167;BME280;15455;53.376;-6.262;2023-04-21T02:01:49;101751.69;;;7.07;100.00
28167;BME280;15455;53.376;-6.262;2023-04-21T02:04:35;101750.16;;;7.13;100.00
28167;BME280;15455;53.376;-6.262;2023-04-21T02:07:21;101757.94;;;7.13;100.00
28167;BME280;15455;53.376;-6.262;2023-04-21T02:10:06;101758.66;;;7.08;100.00
28167;BME280;15455;53.376;-6.262;2023-04-21T02:12:52;101759.47;;;7.07;100.00
28167;BME280;15455;53.376;-6.262;2023-04-21T02:15:37;101756.88;;;7.07;100.00
28167;BME280;15455;53.376;-6.262;2023-04-21T02:18:23;101738.59;;;7.02;100.00
28167;BME280;15455;53.376;-6.262;2023-04-21T02:21:10;101746.38;;;7.02;100.00
28167;BME280;15455;53.376;-6.262;2023-04-21T02:23:55;101744.69;;;7.04;100.00
28167;BME280;15455;53.376;-6.262;2023-04-21T02:26:43;101741.13;;;7.01;100.00
28167;BME280;15455;53.376;-6.262;2023-04-21T02:29:28;101734.00;;;6.93;100.00
28167;BME280;15455;53.376;-6.262;2023-04-21T02:32:13;101728.03;;;6.98;100.00
28167;BME280;15455;53.376;-6.262;2023-04-21T02:35:10;101739.38;;;7.00;100.00
28167;BME280;15455;53.376;-6.262;2023-04-21T02:37:55;101733.16;;;6.94;100.00
28167;BME280;15455;53.376;-6.262;2023-04-21T02:40:40;101752.06;;;6.90;100.00
28167;BME280;15455;53.376;-6.262;2023-04-21T02:43:26;101756.22;;;6.84;100.00
28167;BME280;15455;53.376;-6.262;2023-04-21T02:46:13;101760.34;;;6.77;100.00
28167;BME280;15455;53.376;-6.262;2023-04-21T02:48:58;101756.09;;;6.79;100.00
28167;BME280;15455;53.376;-6.262;2023-04-21T02:51:43;101753.41;;;6.76;100.00
28167;BME280;15455;53.376;-6.262;2023-04-21T02:54:29;101764.81;;;6.83;100.00
28167;BME280;15455;53.376;-6.262;2023-04-21T02:57:14;101764.78;;;6.81;100.00
28167;BME280;15455;53.376;-6.262;2023-04-21T02:59:59;101755.19;;;6.78;100.00
28167;BME280;15455;53.376;-6.262;2023-04-21T03:02:45;101743.94;;;6.78;100.00
28167;BME280;15455;53.376;-6.262;2023-04-21T03:05:33;101747.44;;;6.80;100.00
28167;BME280;15455;53.376;-6.262;2023-04-21T03:08:18;101746.88;;;6.90;100.00
28167;BME280;15455;53.376;-6.262;2023-04-21T03:11:03;101735.81;;;6.98;100.00
28167;BME280;15455;53.376;-6.262;2023-04-21T03:13:49;101734.25;;;7.03;100.00
28167;BME280;15455;53.376;-6.262;2023-04-21T03:16:35;101731.69;;;7.04;100.00
28167;BME280;15455;53.376;-6.262;2023-04-21T03:19:22;101725.72;;;7.07;100.00
28167;BME280;15455;53.376;-6.262;2023-04-21T03:22:08;101717.94;;;7.07;100.00
28167;BME280;15455;53.376;-6.262;2023-04-21T03:24:53;101724.00;;;7.07;100.00
28167;BME280;15455;53.376;-6.262;2023-04-21T03:27:38;101743.03;;;7.06;100.00
28167;BME280;15455;53.376;-6.262;2023-04-21T03:30:24;101737.84;;;7.06;100.00
28167;BME280;15455;53.376;-6.262;2023-04-21T03:33:12;101725.81;;;7.10;100.00
28167;BME280;15455;53.376;-6.262;2023-04-21T03:35:57;101724.06;;;7.10;100.00
28167;BME280;15455;53.376;-6.262;2023-04-21T03:38:47;101715.41;;;7.10;100.00
28167;BME280;15455;53.376;-6.262;2023-04-21T03:41:33;101719.00;;;7.13;100.00
28167;BME280;15455;53.376;-6.262;2023-04-21T03:44:20;101710.31;;;7.13;100.00
28167;BME280;15455;53.376;-6.262;2023-04-21T03:47:05;101704.44;;;7.20;100.00
28167;BME280;15455;53.376;-6.262;2023-04-21T03:49:51;101701.13;;;7.26;100.00
28167;BME280;15455;53.376;-6.262;2023-04-21T03:52:36;101704.00;;;7.35;100.00
28167;BME280;15455;53.376;-6.262;2023-04-21T03:55:21;101702.38;;;7.40;100.00
28167;BME280;15455;53.376;-6.262;2023-04-21T03:58:06;101692.09;;;7.45;100.00
28167;BME280;15455;53.376;-6.262;2023-04-21T04:00:51;101694.81;;;7.50;100.00
28167;BME280;15455;53.376;-6.262;2023-04-21T04:03:37;101689.69;;;7.51;100.00
28167;BME280;15455;53.376;-6.262;2023-04-21T04:06:23;101688.81;;;7.52;100.00
28167;BME280;15455;53.376;-6.262;2023-04-21T04:09:08;101686.25;;;7.54;100.00
28167;BME280;15455;53.376;-6.262;2023-04-21T04:11:53;101678.47;;;7.54;100.00
28167;BME280;15455;53.376;-6.262;2023-04-21T04:14:38;101675.84;;;7.52;100.00
28167;BME280;15455;53.376;-6.262;2023-04-21T04:17:24;101675.78;;;7.51;100.00
28167;BME280;15455;53.376;-6.262;2023-04-21T04:20:09;101674.94;;;7.50;100.00
28167;BME280;15455;53.376;-6.262;2023-04-21T04:22:55;101674.97;;;7.52;100.00
28167;BME280;15455;53.376;-6.262;2023-04-21T04:25:40;101668.03;;;7.52;100.00
28167;BME280;15455;53.376;-6.262;2023-04-21T04:28:26;101673.31;;;7.55;100.00
28167;BME280;15455;53.376;-6.262;2023-04-21T04:31:13;101680.28;;;7.56;100.00
28167;BME280;15455;53.376;-6.262;2023-04-21T04:33:59;101677.66;;;7.56;100.00
28167;BME280;15455;53.376;-6.262;2023-04-21T04:36:44;101659.56;;;7.59;100.00
28167;BME280;15455;53.376;-6.262;2023-04-21T04:39:30;101663.91;;;7.60;100.00
28167;BME280;15455;53.376;-6.262;2023-04-21T04:42:16;101666.56;;;7.62;100.00
28167;BME280;15455;53.376;-6.262;2023-04-21T04:45:01;101670.06;;;7.64;100.00
28167;BME280;15455;53.376;-6.262;2023-04-21T04:47:48;101661.44;;;7.65;100.00
28167;BME280;15455;53.376;-6.262;2023-04-21T04:50:34;101664.06;;;7.67;100.00
28167;BME280;15455;53.376;-6.262;2023-04-21T04:53:19;101647.59;;;7.66;100.00
28167;BME280;15455;53.376;-6.262;2023-04-21T04:56:04;101650.16;;;7.64;100.00
28167;BME280;15455;53.376;-6.262;2023-04-21T04:58:49;101639.78;;;7.64;100.00
28167;BME280;15455;53.376;-6.262;2023-04-21T05:01:35;101640.56;;;7.62;100.00
28167;BME280;15455;53.376;-6.262;2023-04-21T05:04:22;101643.00;;;7.54;100.00
28167;BME280;15455;53.376;-6.262;2023-04-21T05:07:08;101640.25;;;7.50;100.00
28167;BME280;15455;53.376;-6.262;2023-04-21T05:09:53;101648.75;;;7.42;100.00
28167;BME280;15455;53.376;-6.262;2023-04-21T05:12:39;101651.22;;;7.38;100.00
28167;BME280;15455;53.376;-6.262;2023-04-21T05:15:24;101645.06;;;7.33;100.00
28167;BME280;15455;53.376;-6.262;2023-04-21T05:18:09;101652.09;;;7.37;100.00
28167;BME280;15455;53.376;-6.262;2023-04-21T05:20:54;101639.00;;;7.34;100.00
28167;BME280;15455;53.376;-6.262;2023-04-21T05:23:40;101636.22;;;7.26;100.00
28167;BME280;15455;53.376;-6.262;2023-04-21T05:26:26;101645.66;;;7.22;100.00
28167;BME280;15455;53.376;-6.262;2023-04-21T05:29:11;101642.06;;;7.17;100.00
28167;BME280;15455;53.376;-6.262;2023-04-21T05:31:57;101637.56;;;7.10;100.00
28167;BME280;15455;53.376;-6.262;2023-04-21T05:34:42;101646.91;;;7.05;100.00
28167;BME280;15455;53.376;-6.262;2023-04-21T05:37:28;101652.09;;;7.05;100.00
28167;BME280;15455;53.376;-6.262;2023-04-21T05:40:13;101660.75;;;7.04;100.00
28167;BME280;15455;53.376;-6.262;2023-04-21T05:42:58;101654.66;;;7.03;100.00
28167;BME280;15455;53.376;-6.262;2023-04-21T05:45:43;101639.09;;;7.03;100.00
28167;BME280;15455;53.376;-6.262;2023-04-21T05:48:29;101640.06;;;7.07;100.00
28167;BME280;15455;53.376;-6.262;2023-04-21T05:51:14;101635.00;;;7.11;100.00
28167;BME280;15455;53.376;-6.262;2023-04-21T05:53:59;101634.19;;;7.14;100.00
28167;BME280;15455;53.376;-6.262;2023-04-21T05:56:44;101627.25;;;7.13;100.00
28167;BME280;15455;53.376;-6.262;2023-04-21T05:59:31;101630.66;;;7.12;100.00
28167;BME280;15455;53.376;-6.262;2023-04-21T06:02:16;101627.25;;;7.13;100.00
28167;BME280;15455;53.376;-6.262;2023-04-21T06:05:02;101627.25;;;7.13;100.00
28167;BME280;15455;53.376;-6.262;2023-04-21T06:07:48;101632.53;;;7.18;100.00
28167;BME280;15455;53.376;-6.262;2023-04-21T06:10:33;101636.94;;;7.20;100.00
28167;BME280;15455;53.376;-6.262;2023-04-21T06:13:18;101644.94;;;7.28;100.00
28167;BME280;15455;53.376;-6.262;2023-04-21T06:16:03;101649.50;;;7.37;100.00
28167;BME280;15455;53.376;-6.262;2023-04-21T06:18:49;101644.53;;;7.46;100.00
28167;BME280;15455;53.376;-6.262;2023-04-21T06:21:34;101631.72;;;7.54;100.00
28167;BME280;15455;53.376;-6.262;2023-04-21T06:24:20;101630.19;;;7.62;100.00
28167;BME280;15455;53.376;-6.262;2023-04-21T06:27:09;101623.41;;;7.67;100.00
28167;BME280;15455;53.376;-6.262;2023-04-21T06:29:56;101617.41;;;7.71;100.00
28167;BME280;15455;53.376;-6.262;2023-04-21T06:32:41;101615.75;;;7.75;100.00
28167;BME280;15455;53.376;-6.262;2023-04-21T06:35:27;101598.56;;;7.80;100.00
28167;BME280;15455;53.376;-6.262;2023-04-21T06:38:12;101577.91;;;7.86;100.00
28167;BME280;15455;53.376;-6.262;2023-04-21T06:40:57;101572.00;;;7.93;100.00
28167;BME280;15455;53.376;-6.262;2023-04-21T06:43:42;101557.41;;;8.00;100.00
28167;BME280;15455;53.376;-6.262;2023-04-21T06:46:28;101554.06;;;8.06;100.00
28167;BME280;15455;53.376;-6.262;2023-04-21T06:49:13;101554.00;;;8.03;100.00
28167;BME280;15455;53.376;-6.262;2023-04-21T06:51:59;101547.84;;;7.97;100.00
28167;BME280;15455;53.376;-6.262;2023-04-21T06:54:44;101550.25;;;7.90;100.00
28167;BME280;15455;53.376;-6.262;2023-04-21T06:57:30;101551.16;;;7.90;100.00
28167;BME280;15455;53.376;-6.262;2023-04-21T07:00:15;101546.03;;;7.95;100.00
28167;BME280;15455;53.376;-6.262;2023-04-21T07:03:00;101542.03;;;8.11;100.00
28167;BME280;15455;53.376;-6.262;2023-04-21T07:05:46;101545.59;;;8.16;100.00
28167;BME280;15455;53.376;-6.262;2023-04-21T07:08:31;101549.88;;;8.12;100.00
28167;BME280;15455;53.376;-6.262;2023-04-21T07:11:17;101558.53;;;8.13;100.00
28167;BME280;15455;53.376;-6.262;2023-04-21T07:14:02;101560.38;;;8.18;100.00
28167;BME280;15455;53.376;-6.262;2023-04-21T07:16:47;101550.91;;;8.21;100.00
28167;BME280;15455;53.376;-6.262;2023-04-21T07:19:33;101552.81;;;8.29;100.00
28167;BME280;15455;53.376;-6.262;2023-04-21T07:22:18;101550.34;;;8.37;100.00
28167;BME280;15455;53.376;-6.262;2023-04-21T07:25:04;101544.41;;;8.43;100.00
28167;BME280;15455;53.376;-6.262;2023-04-21T07:27:50;101545.47;;;8.51;100.00
28167;BME280;15455;53.376;-6.262;2023-04-21T07:30:36;101542.97;;;8.57;100.00
28167;BME280;15455;53.376;-6.262;2023-04-21T07:33:21;101545.56;;;8.57;100.00
28167;BME280;15455;53.376;-6.262;2023-04-21T07:36:06;101535.06;;;8.51;100.00
28167;BME280;15455;53.376;-6.262;2023-04-21T07:38:52;101532.50;;;8.54;100.00
28167;BME280;15455;53.376;-6.262;2023-04-21T07:41:37;101530.94;;;8.62;100.00
28167;BME280;15455;53.376;-6.262;2023-04-21T07:44:22;101522.31;;;8.66;100.00
28167;BME280;15455;53.376;-6.262;2023-04-21T07:47:07;101522.47;;;8.76;100.00
28167;BME280;15455;53.376;-6.262;2023-04-21T07:49:53;101519.13;;;8.83;100.00
28167;BME280;15455;53.376;-6.262;2023-04-21T07:52:38;101509.69;;;8.90;100.00
28167;BME280;15455;53.376;-6.262;2023-04-21T07:55:23;101495.00;;;8.92;100.00
28167;BME280;15455;53.376;-6.262;2023-04-21T07:58:09;101485.72;;;9.09;100.00
28167;BME280;15455;53.376;-6.262;2023-04-21T08:00:54;101462.50;;;9.23;100.00
28167;BME280;15455;53.376;-6.262;2023-04-21T08:03:40;101468.63;;;9.28;100.00
28167;BME280;15455;53.376;-6.262;2023-04-21T08:06:26;101490.31;;;9.27;100.00
28167;BME280;15455;53.376;-6.262;2023-04-21T08:09:12;101527.50;;;9.18;100.00
28167;BME280;15455;53.376;-6.262;2023-04-21T08:11:57;101536.06;;;9.10;100.00
28167;BME280;15455;53.376;-6.262;2023-04-21T08:14:43;101537.88;;;9.14;100.00
28167;BME280;15455;53.376;-6.262;2023-04-21T08:17:28;101531.06;;;9.22;100.00
28167;BME280;15455;53.376;-6.262;2023-04-21T08:20:15;101509.50;;;9.32;100.00
28167;BME280;15455;53.376;-6.262;2023-04-21T08:23:01;101513.97;;;9.41;100.00
28167;BME280;15455;53.376;-6.262;2023-04-21T08:25:46;101509.59;;;9.40;100.00
28167;BME280;15455;53.376;-6.262;2023-04-21T08:28:31;101500.84;;;9.33;100.00
28167;BME280;15455;53.376;-6.262;2023-04-21T08:31:17;101491.34;;;9.38;100.00
28167;BME280;15455;53.376;-6.262;2023-04-21T08:34:03;101486.34;;;9.52;100.00
28167;BME280;15455;53.376;-6.262;2023-04-21T08:36:48;101479.56;;;9.64;100.00
28167;BME280;15455;53.376;-6.262;2023-04-21T08:39:34;101479.69;;;9.74;100.00
28167;BME280;15455;53.376;-6.262;2023-04-21T08:42:19;101462.31;;;9.75;100.00
28167;BME280;15455;53.376;-6.262;2023-04-21T08:45:05;101464.16;;;9.82;100.00
28167;BME280;15455;53.376;-6.262;2023-04-21T08:47:51;101452.81;;;9.80;100.00
28167;BME280;15455;53.376;-6.262;2023-04-21T08:50:36;101447.63;;;9.82;100.00
28167;BME280;15455;53.376;-6.262;2023-04-21T08:53:22;101447.59;;;9.79;100.00
28167;BME280;15455;53.376;-6.262;2023-04-21T08:56:08;101436.25;;;9.75;100.00
28167;BME280;15455;53.376;-6.262;2023-04-21T08:58:55;101426.78;;;9.85;100.00
28167;BME280;15455;53.376;-6.262;2023-04-21T09:04:46;101435.56;;;9.91;100.00
28167;BME280;15455;53.376;-6.262;2023-04-21T09:07:32;101431.16;;;9.86;100.00
28167;BME280;15455;53.376;-6.262;2023-04-21T09:10:22;101426.91;;;9.94;100.00
28167;BME280;15455;53.376;-6.262;2023-04-21T09:13:08;101429.50;;;9.93;100.00
28167;BME280;15455;53.376;-6.262;2023-04-21T09:15:54;101428.75;;;10.03;100.00
28167;BME280;15455;53.376;-6.262;2023-04-21T09:18:40;101420.94;;;10.06;100.00
28167;BME280;15455;53.376;-6.262;2023-04-21T09:21:28;101418.16;;;9.89;100.00
28167;BME280;15455;53.376;-6.262;2023-04-21T09:24:16;101419.19;;;10.03;100.00
28167;BME280;15455;53.376;-6.262;2023-04-21T09:27:01;101413.09;;;10.03;100.00
28167;BME280;15455;53.376;-6.262;2023-04-21T09:29:48;101398.34;;;10.08;100.00
28167;BME280;15455;53.376;-6.262;2023-04-21T09:32:36;101394.13;;;10.19;100.00
28167;BME280;15455;53.376;-6.262;2023-04-21T09:35:26;101396.91;;;10.35;100.00
28167;BME280;15455;53.376;-6.262;2023-04-21T09:38:12;101386.53;;;10.42;100.00
28167;BME280;15455;53.376;-6.262;2023-04-21T09:40:57;101373.47;;;10.41;100.00
28167;BME280;15455;53.376;-6.262;2023-04-21T09:43:43;101373.50;;;10.46;100.00
28167;BME280;15455;53.376;-6.262;2023-04-21T09:46:32;101371.84;;;10.57;100.00
28167;BME280;15455;53.376;-6.262;2023-04-21T09:49:18;101372.81;;;10.70;100.00
28167;BME280;15455;53.376;-6.262;2023-04-21T09:52:06;101371.16;;;10.78;100.00
28167;BME280;15455;53.376;-6.262;2023-04-21T09:55:03;101365.91;;;10.72;100.00
28167;BME280;15455;53.376;-6.262;2023-04-21T09:57:51;101366.81;;;10.82;100.00
28167;BME280;15455;53.376;-6.262;2023-04-21T10:00:39;101366.91;;;10.95;100.00
28167;BME280;15455;53.376;-6.262;2023-04-21T10:03:26;101362.53;;;10.91;100.00
28167;BME280;15455;53.376;-6.262;2023-04-21T10:06:11;101365.91;;;10.72;100.00
28167;BME280;15455;53.376;-6.262;2023-04-21T10:08:57;101342.34;;;10.69;100.00
28167;BME280;15455;53.376;-6.262;2023-04-21T10:11:43;101338.00;;;10.66;100.00
28167;BME280;15455;53.376;-6.262;2023-04-21T10:14:28;101351.09;;;10.75;100.00
28167;BME280;15455;53.376;-6.262;2023-04-21T10:17:14;101347.63;;;10.72;100.00
28167;BME280;15455;53.376;-6.262;2023-04-21T10:20:03;101334.59;;;10.75;100.00
28167;BME280;15455;53.376;-6.262;2023-04-21T10:22:50;101348.56;;;10.85;100.00
28167;BME280;15455;53.376;-6.262;2023-04-21T10:25:41;101339.78;;;10.72;100.00
28167;BME280;15455;53.376;-6.262;2023-04-21T10:28:39;101331.81;;;10.52;100.00
28167;BME280;15455;53.376;-6.262;2023-04-21T10:34:14;101332.66;;;10.49;100.00
28167;BME280;15455;53.376;-6.262;2023-04-21T10:39:52;101334.63;;;10.84;100.00
28167;BME280;15455;53.376;-6.262;2023-04-21T10:42:38;101331.19;;;10.91;100.00
28167;BME280;15455;53.376;-6.262;2023-04-21T10:45:24;101327.81;;;11.06;100.00
28167;BME280;15455;53.376;-6.262;2023-04-21T10:48:12;101308.63;;;11.09;100.00
28167;BME280;15455;53.376;-6.262;2023-04-21T10:50:57;101313.06;;;11.25;100.00
28167;BME280;15455;53.376;-6.262;2023-04-21T10:53:43;101307.78;;;11.11;100.00
28167;BME280;15455;53.376;-6.262;2023-04-21T10:56:28;101299.09;;;11.14;100.00
28167;BME280;15455;53.376;-6.262;2023-04-21T10:59:14;101305.13;;;11.02;100.00
28167;BME280;15455;53.376;-6.262;2023-04-21T11:02:00;101303.38;;;11.04;100.00
28167;BME280;15455;53.376;-6.262;2023-04-21T11:04:49;101291.25;;;11.09;100.00
28167;BME280;15455;53.376;-6.262;2023-04-21T11:07:35;101279.91;;;11.12;100.00
28167;BME280;15455;53.376;-6.262;2023-04-21T11:10:21;101279.09;;;11.24;100.00
28167;BME280;15455;53.376;-6.262;2023-04-21T11:13:06;101267.81;;;11.31;100.00
28167;BME280;15455;53.376;-6.262;2023-04-21T11:15:55;101269.56;;;11.54;100.00
28167;BME280;15455;53.376;-6.262;2023-04-21T11:18:42;101270.47;;;11.54;100.00
28167;BME280;15455;53.376;-6.262;2023-04-21T11:21:28;101284.34;;;11.42;100.00
28167;BME280;15455;53.376;-6.262;2023-04-21T11:24:14;101258.19;;;11.27;100.00
28167;BME280;15455;53.376;-6.262;2023-04-21T11:26:59;101250.38;;;11.28;100.00
28167;BME280;15455;53.376;-6.262;2023-04-21T11:29:48;101258.22;;;11.32;100.00
28167;BME280;15455;53.376;-6.262;2023-04-21T11:32:34;101256.50;;;11.52;100.00
28167;BME280;15455;53.376;-6.262;2023-04-21T11:35:22;101243.47;;;11.72;100.00
28167;BME280;15455;53.376;-6.262;2023-04-21T11:38:07;101237.34;;;11.86;100.00
28167;BME280;15455;53.376;-6.262;2023-04-21T11:40:52;101224.31;;;12.03;100.00
28167;BME280;15455;53.376;-6.262;2023-04-21T11:43:39;101216.47;;;11.96;100.00
28167;BME280;15455;53.376;-6.262;2023-04-21T11:46:24;101226.03;;;11.93;100.00
28167;BME280;15455;53.376;-6.262;2023-04-21T11:49:10;101213.00;;;12.02;100.00
28167;BME280;15455;53.376;-6.262;2023-04-21T11:51:56;101217.31;;;12.15;100.00
28167;BME280;15455;53.376;-6.262;2023-04-21T11:54:41;101206.81;;;12.25;100.00
28167;BME280;15455;53.376;-6.262;2023-04-21T11:57:27;101197.25;;;12.22;100.00
28167;BME280;15455;53.376;-6.262;2023-04-21T12:00:13;101180.69;;;12.14;100.00
28167;BME280;15455;53.376;-6.262;2023-04-21T12:02:59;101192.88;;;12.24;100.00
28167;BME280;15455;53.376;-6.262;2023-04-21T12:05:45;101186.75;;;12.33;100.00
28167;BME280;15455;53.376;-6.262;2023-04-21T12:08:31;101184.97;;;12.49;100.00
28167;BME280;15455;53.376;-6.262;2023-04-21T12:11:16;101186.56;;;12.84;100.00
28167;BME280;15455;53.376;-6.262;2023-04-21T12:14:01;101184.75;;;13.03;100.00
28167;BME280;15455;53.376;-6.262;2023-04-21T12:16:47;101171.69;;;12.91;100.00
28167;BME280;15455;53.376;-6.262;2023-04-21T12:19:34;101167.19;;;13.13;100.00
28167;BME280;15455;53.376;-6.262;2023-04-21T12:22:20;101158.38;;;13.28;100.00
28167;BME280;15455;53.376;-6.262;2023-04-21T12:25:07;101148.66;;;13.45;100.00
28167;BME280;15455;53.376;-6.262;2023-04-21T12:27:56;101156.19;;;13.81;100.00
28167;BME280;15455;53.376;-6.262;2023-04-21T12:30:42;101143.25;;;13.64;100.00
28167;BME280;15455;53.376;-6.262;2023-04-21T12:33:28;101147.78;;;13.48;100.00
28167;BME280;15455;53.376;-6.262;2023-04-21T12:36:14;101146.09;;;13.34;100.00
28167;BME280;15455;53.376;-6.262;2023-04-21T12:39:00;101146.97;;;13.33;100.00
28167;BME280;15455;53.376;-6.262;2023-04-21T12:41:46;101127.81;;;13.25;100.00
28167;BME280;15455;53.376;-6.262;2023-04-21T12:44:31;101134.00;;;13.15;100.00
28167;BME280;15455;53.376;-6.262;2023-04-21T12:47:16;101132.97;;;13.36;100.00
28167;BME280;15455;53.376;-6.262;2023-04-21T12:50:01;101124.31;;;13.25;100.00
28167;BME280;15455;53.376;-6.262;2023-04-21T12:52:47;101111.16;;;13.31;100.00
28167;BME280;15455;53.376;-6.262;2023-04-21T12:55:35;101111.91;;;13.48;100.00
28167;BME280;15455;53.376;-6.262;2023-04-21T12:58:21;101114.72;;;13.24;100.00
28167;BME280;15455;53.376;-6.262;2023-04-21T13:01:06;101106.84;;;13.24;100.00
28167;BME280;15455;53.376;-6.262;2023-04-21T13:03:52;101101.59;;;13.25;100.00
28167;BME280;15455;53.376;-6.262;2023-04-21T13:06:38;101089.22;;;13.46;100.00
28167;BME280;15455;53.376;-6.262;2023-04-21T13:09:24;101085.66;;;13.51;100.00
28167;BME280;15455;53.376;-6.262;2023-04-21T13:12:09;101083.91;;;13.50;100.00
28167;BME280;15455;53.376;-6.262;2023-04-21T13:14:54;101076.25;;;13.24;100.00
28167;BME280;15455;53.376;-6.262;2023-04-21T13:17:40;101077.13;;;13.21;100.00
28167;BME280;15455;53.376;-6.262;2023-04-21T13:20:25;101077.06;;;13.37;100.00
28167;BME280;15455;53.376;-6.262;2023-04-21T13:23:11;101073.50;;;13.43;100.00
28167;BME280;15455;53.376;-6.262;2023-04-21T13:25:58;101092.88;;;13.23;100.00
28167;BME280;15455;53.376;-6.262;2023-04-21T13:28:43;101069.13;;;13.45;100.00
28167;BME280;15455;53.376;-6.262;2023-04-21T13:31:29;101065.34;;;13.72;100.00
28167;BME280;15455;53.376;-6.262;2023-04-21T13:34:14;101072.31;;;13.76;100.00
28167;BME280;15455;53.376;-6.262;2023-04-21T13:37:00;101065.94;;;14.00;100.00
28167;BME280;15455;53.376;-6.262;2023-04-21T13:39:45;101050.81;;;14.19;100.00
28167;BME280;15455;53.376;-6.262;2023-04-21T13:42:30;101055.75;;;14.44;100.00
28167;BME280;15455;53.376;-6.262;2023-04-21T13:45:17;101029.25;;;14.63;100.00
28167;BME280;15455;53.376;-6.262;2023-04-21T13:48:02;101034.31;;;14.76;100.00
28167;BME280;15455;53.376;-6.262;2023-04-21T13:50:50;101030.53;;;14.93;100.00
28167;BME280;15455;53.376;-6.262;2023-04-21T13:53:36;101023.91;;;15.23;100.00
28167;BME280;15455;53.376;-6.262;2023-04-21T13:56:21;101022.00;;;15.33;100.00
28167;BME280;15455;53.376;-6.262;2023-04-21T13:59:06;101015.03;;;15.29;100.00
28167;BME280;15455;53.376;-6.262;2023-04-21T14:01:51;101016.59;;;15.41;100.00
28167;BME280;15455;53.376;-6.262;2023-04-21T14:04:37;101001.75;;;15.38;100.00
28167;BME280;15455;53.376;-6.262;2023-04-21T14:07:23;101008.91;;;15.30;100.00
28167;BME280;15455;53.376;-6.262;2023-04-21T14:10:10;101003.03;;;15.16;100.00
28167;BME280;15455;53.376;-6.262;2023-04-21T14:12:58;100996.88;;;15.17;100.00
28167;BME280;15455;53.376;-6.262;2023-04-21T14:15:44;100985.22;;;15.32;100.00
28167;BME280;15455;53.376;-6.262;2023-04-21T14:18:29;100988.53;;;15.41;100.00
28167;BME280;15455;53.376;-6.262;2023-04-21T14:21:14;100990.31;;;15.39;100.00